Airfield :
LOGIN :

Register | Disclaimer

   EN    FR    IT 

 










Legend :    VFR   Marginal VFR   IFR   Intensive IFR   Very Intensive IFR
Visi :
Ceiling :
>= 8 km
>= 3000ft
5 to 8 km
1000 to 3000 ft
1500m to 5 km
500 to 1000 ft
800 to 1500m
200 to 500 ft
< 800m
< 200 ft
Symbols :   Thunderstorms  Fog  Heavy snow  Heavy precipitations  Wind > 20 kt
SIGMETs :     Misc.  Thunderstorms  Icing  Turbulence  Mountain Waves  Volcanic Ashes






- Airport Elevation : 1708 ft
- IATA code : SJJ


LQSA - Sarajevo

CURRENT METAR :
  • 091730Z 17004KT 130V280 9999 SCT045 BKN055 10/05 Q1007 NOSIG

EXPIRED METARs :
  • 091700Z VRB03KT 9999 BKN050 10/04 Q1007 NOSIG
  • 091630Z 15007KT 9999 BKN050 11/04 Q1007 NOSIG
  • 091600Z VRB01KT 9999 BKN050 09/05 Q1007 NOSIG
  • 091530Z 28003KT 230V020 9999 BKN050 10/05 Q1007 NOSIG
  • 091500Z VRB05KT 9999 BKN050 12/04 Q1007 NOSIG
  • 091430Z 15009KT 070V220 9999 BKN055 12/05 Q1007 NOSIG

TAF TAF LQSA
Valid from the 09 at 18:00 until the 10 at 18:00 UTC


091700Z 0918/1018 18005KT 9999 BKN050 TX10/0918Z TN01/1018Z
TEMPO 1005/1016 2000 RA BKN003 BKN030
PROB30
TEMPO 1015/1018 30014KT 1500 SN BKN003 BKN020



MET'MAP, your aeronautical weather chart ! - Copyright ORBIFLY December 2007 - Disclaimer

ORBIFLY MET'MAP TEAM :

Programming & Development : Alexandra Zaïnal
Concept & original design : Baudouin d'Aumeries
Assistance for programming : Marc-Olivier Méhu
Technical & hardware support : Manuel Goepfert

Contact : metmap@orbifly.com




SOURCES & CREDITS :

   NOAA